createdAt,value
2017-01-26T00:00:08.839Z,981.51
2017-01-26T00:00:38.870Z,981.52
2017-01-26T00:01:08.906Z,981.49
2017-01-26T00:01:38.941Z,981.49
2017-01-26T00:02:08.970Z,981.53
2017-01-26T00:02:39.001Z,981.44
2017-01-26T00:03:09.036Z,981.48
2017-01-26T00:03:39.069Z,981.49
2017-01-26T00:04:09.102Z,981.44
2017-01-26T00:04:39.134Z,981.49
2017-01-26T00:05:09.168Z,981.45
2017-01-26T00:05:39.201Z,981.44
2017-01-26T00:06:09.232Z,981.43
2017-01-26T00:06:39.265Z,981.44
2017-01-26T00:07:09.325Z,981.46
2017-01-26T00:07:39.333Z,981.39
2017-01-26T00:08:09.364Z,981.39
2017-01-26T00:08:39.398Z,981.38
2017-01-26T00:09:09.431Z,981.4
2017-01-26T00:09:39.464Z,981.33
2017-01-26T00:10:09.498Z,981.35
2017-01-26T00:10:39.530Z,981.37
2017-01-26T00:11:09.587Z,981.38
2017-01-26T00:11:39.596Z,981.33
2017-01-26T00:12:09.627Z,981.32
2017-01-26T00:12:39.662Z,981.35
2017-01-26T00:13:09.701Z,981.36
2017-01-26T00:13:39.726Z,981.31
2017-01-26T00:14:09.761Z,981.31
2017-01-26T00:14:39.792Z,981.26
2017-01-26T00:15:09.824Z,981.26
2017-01-26T00:15:39.857Z,981.34
2017-01-26T00:16:09.890Z,981.29
2017-01-26T00:16:39.923Z,981.31
2017-01-26T00:17:09.956Z,981.38
2017-01-26T00:17:39.991Z,981.39
2017-01-26T00:18:10.022Z,981.27
2017-01-26T00:18:40.054Z,981.3
2017-01-26T00:19:10.088Z,981.29
2017-01-26T00:19:40.121Z,981.35
2017-01-26T00:20:10.154Z,981.34
2017-01-26T00:20:40.185Z,981.36
2017-01-26T00:21:10.219Z,981.32
2017-01-26T00:21:40.252Z,981.38
2017-01-26T00:22:10.284Z,981.36
2017-01-26T00:22:40.318Z,981.4
2017-01-26T00:23:10.350Z,981.41
2017-01-26T00:23:40.406Z,981.45
2017-01-26T00:24:10.416Z,981.45
2017-01-26T00:24:40.460Z,981.45
2017-01-26T00:25:10.481Z,981.44
2017-01-26T00:25:40.514Z,981.44
2017-01-26T00:26:10.548Z,981.44
2017-01-26T00:26:40.583Z,981.44
2017-01-26T00:27:10.614Z,981.41
2017-01-26T00:27:40.647Z,981.43
2017-01-26T00:28:10.679Z,981.34
2017-01-26T00:28:40.712Z,981.38
2017-01-26T00:29:10.746Z,981.33
2017-01-26T00:29:40.778Z,981.39
2017-01-26T00:30:10.811Z,981.37
2017-01-26T00:30:40.844Z,981.44
2017-01-26T00:31:10.877Z,981.35
2017-01-26T00:31:40.909Z,981.41
2017-01-26T00:32:10.945Z,981.35
2017-01-26T00:32:40.976Z,981.44
2017-01-26T00:33:11.009Z,981.4
2017-01-26T00:33:41.041Z,981.36
2017-01-26T00:34:11.075Z,981.34
2017-01-26T00:34:41.107Z,981.32
2017-01-26T00:35:11.141Z,981.32
2017-01-26T00:35:41.172Z,981.35
2017-01-26T00:36:11.206Z,981.38
2017-01-26T00:36:41.239Z,981.39
2017-01-26T00:37:11.272Z,981.39
2017-01-26T00:37:41.306Z,981.36
2017-01-26T00:38:11.338Z,981.35
2017-01-26T00:38:41.372Z,981.36
2017-01-26T00:39:11.406Z,981.39
2017-01-26T00:39:41.436Z,981.38
2017-01-26T00:40:11.471Z,981.42
2017-01-26T00:40:41.504Z,981.37
2017-01-26T00:41:11.537Z,981.37
2017-01-26T00:41:41.568Z,981.38
2017-01-26T00:42:11.602Z,981.41
2017-01-26T00:42:41.636Z,981.41
2017-01-26T00:43:11.667Z,981.41
2017-01-26T00:43:41.700Z,981.31
2017-01-26T00:44:11.733Z,981.41
2017-01-26T00:44:41.767Z,981.45
2017-01-26T00:45:11.799Z,981.4
2017-01-26T00:45:41.831Z,981.44
2017-01-26T00:46:11.864Z,981.39
2017-01-26T00:46:41.896Z,981.4
2017-01-26T00:47:11.929Z,981.43
2017-01-26T00:47:41.963Z,981.43
2017-01-26T00:48:11.996Z,981.39
2017-01-26T00:48:42.031Z,981.33
2017-01-26T00:49:12.061Z,981.41
2017-01-26T00:49:42.096Z,981.39
2017-01-26T00:50:12.129Z,981.44
2017-01-26T00:50:42.160Z,981.44
2017-01-26T00:51:12.194Z,981.45
2017-01-26T00:51:42.228Z,981.42
2017-01-26T00:52:12.259Z,981.43
2017-01-26T00:52:42.292Z,981.42
2017-01-26T00:53:12.326Z,981.43
2017-01-26T00:53:42.367Z,981.45
2017-01-26T00:54:12.392Z,981.46
2017-01-26T00:54:42.426Z,981.37
2017-01-26T00:55:12.458Z,981.43
2017-01-26T00:55:42.492Z,981.41
2017-01-26T00:56:12.525Z,981.41
2017-01-26T00:56:42.558Z,981.42
2017-01-26T00:57:12.589Z,981.43
2017-01-26T00:57:42.624Z,981.42
2017-01-26T00:58:12.657Z,981.34
2017-01-26T00:58:42.690Z,981.35
2017-01-26T00:59:12.722Z,981.37
2017-01-26T00:59:42.755Z,981.39
2017-01-26T01:00:12.788Z,981.33
2017-01-26T01:00:42.822Z,981.36
2017-01-26T01:01:12.855Z,981.36
2017-01-26T01:01:42.890Z,981.36
2017-01-26T01:02:12.921Z,981.33
2017-01-26T01:02:42.952Z,981.35
2017-01-26T01:03:12.986Z,981.38
2017-01-26T01:03:43.019Z,981.32
2017-01-26T01:04:13.051Z,981.33
2017-01-26T01:04:43.086Z,981.38
2017-01-26T01:05:13.119Z,981.3
2017-01-26T01:05:43.153Z,981.38
2017-01-26T01:06:13.183Z,981.32
2017-01-26T01:06:43.216Z,981.34
2017-01-26T01:07:13.251Z,981.35
2017-01-26T01:07:43.285Z,981.33
2017-01-26T01:08:13.316Z,981.39
2017-01-26T01:08:43.349Z,981.35
2017-01-26T01:09:13.382Z,981.34
2017-01-26T01:09:43.420Z,981.38
2017-01-26T01:10:13.448Z,981.37
2017-01-26T01:10:43.481Z,981.29
2017-01-26T01:11:13.535Z,981.37
2017-01-26T01:11:43.548Z,981.39
2017-01-26T01:12:13.580Z,981.32
2017-01-26T01:12:43.612Z,981.38
2017-01-26T01:13:13.645Z,981.35
2017-01-26T01:13:43.678Z,981.37
2017-01-26T01:14:13.714Z,981.37
2017-01-26T01:14:43.770Z,981.37
2017-01-26T01:15:13.780Z,981.4
2017-01-26T01:15:43.811Z,981.32
2017-01-26T01:16:13.843Z,981.29
2017-01-26T01:16:43.877Z,981.31
2017-01-26T01:17:13.910Z,981.3
2017-01-26T01:17:43.942Z,981.28
2017-01-26T01:18:13.976Z,981.33
2017-01-26T01:18:44.008Z,981.33
2017-01-26T01:19:14.044Z,981.27
2017-01-26T01:19:44.075Z,981.31
2017-01-26T01:20:14.115Z,981.33
2017-01-26T01:20:44.142Z,981.33
2017-01-26T01:21:14.174Z,981.33
2017-01-26T01:21:44.207Z,981.27
2017-01-26T01:22:14.242Z,981.29
2017-01-26T01:22:44.273Z,981.31
2017-01-26T01:23:14.304Z,981.27
2017-01-26T01:23:44.339Z,981.26
2017-01-26T01:24:14.371Z,981.34
2017-01-26T01:24:44.405Z,981.28
2017-01-26T01:25:14.438Z,981.28
2017-01-26T01:25:44.473Z,981.27
2017-01-26T01:26:14.502Z,981.3
2017-01-26T01:26:44.537Z,981.26
2017-01-26T01:27:14.569Z,981.26
2017-01-26T01:27:44.606Z,981.3
2017-01-26T01:28:14.635Z,981.28
2017-01-26T01:28:44.669Z,981.27
2017-01-26T01:29:14.703Z,981.23
2017-01-26T01:29:44.736Z,981.25
2017-01-26T01:30:14.767Z,981.24
2017-01-26T01:30:44.800Z,981.27
2017-01-26T01:31:14.832Z,981.25
2017-01-26T01:31:44.866Z,981.23
2017-01-26T01:32:14.926Z,981.26
2017-01-26T01:32:44.930Z,981.26
2017-01-26T01:33:14.965Z,981.22
2017-01-26T01:33:44.997Z,981.23
2017-01-26T01:34:15.031Z,981.22
2017-01-26T01:34:45.064Z,981.27
2017-01-26T01:35:15.096Z,981.25
2017-01-26T01:35:45.130Z,981.22
2017-01-26T01:36:15.165Z,981.3
2017-01-26T01:36:45.194Z,981.26
2017-01-26T01:37:15.227Z,981.26
2017-01-26T01:37:45.262Z,981.23
2017-01-26T01:38:15.310Z,981.21
2017-01-26T01:38:45.328Z,981.25
2017-01-26T01:39:15.362Z,981.23
2017-01-26T01:39:45.392Z,981.16
2017-01-26T01:40:15.424Z,981.21
2017-01-26T01:40:45.460Z,981.2
2017-01-26T01:41:15.491Z,981.2
2017-01-26T01:41:45.524Z,981.24
2017-01-26T01:42:15.557Z,981.26
2017-01-26T01:42:45.593Z,981.22
2017-01-26T01:43:15.623Z,981.21
2017-01-26T01:43:45.657Z,981.17
2017-01-26T01:44:15.708Z,981.19
2017-01-26T01:44:45.723Z,981.21
2017-01-26T01:45:15.758Z,981.19
2017-01-26T01:45:45.789Z,981.17
2017-01-26T01:46:15.822Z,981.15
2017-01-26T01:46:45.853Z,981.16
2017-01-26T01:47:15.886Z,981.15
2017-01-26T01:47:45.921Z,981.13
2017-01-26T01:48:15.954Z,981.16
2017-01-26T01:48:46.015Z,981.18
2017-01-26T01:49:16.022Z,981.14
2017-01-26T01:49:46.052Z,981.17
2017-01-26T01:50:16.087Z,981.09
2017-01-26T01:50:46.120Z,981.16
2017-01-26T01:51:16.158Z,981.14
2017-01-26T01:51:46.186Z,981.17
2017-01-26T01:52:16.218Z,981.15
2017-01-26T01:52:46.251Z,981.14
2017-01-26T01:53:16.284Z,981.17
2017-01-26T01:53:46.317Z,981.19
2017-01-26T01:54:16.350Z,981.12
2017-01-26T01:54:46.385Z,981.18
2017-01-26T01:55:16.418Z,981.16
2017-01-26T01:55:46.449Z,981.18
2017-01-26T01:56:16.483Z,981.23
2017-01-26T01:56:46.521Z,981.25
2017-01-26T01:57:16.547Z,981.18
2017-01-26T01:57:46.581Z,981.18
2017-01-26T01:58:16.613Z,981.23
2017-01-26T01:58:46.647Z,981.15
2017-01-26T01:59:16.682Z,981.2
2017-01-26T01:59:46.712Z,981.17
2017-01-26T02:00:16.747Z,981.17
2017-01-26T02:00:46.778Z,981.17
2017-01-26T02:01:16.812Z,981.16
2017-01-26T02:01:46.845Z,981.19
2017-01-26T02:02:16.877Z,981.18
2017-01-26T02:02:46.912Z,981.14
2017-01-26T02:03:16.944Z,981.11
2017-01-26T02:03:46.977Z,981.13
2017-01-26T02:04:17.009Z,981.11
2017-01-26T02:04:47.042Z,981.12
2017-01-26T02:05:17.079Z,981.15
2017-01-26T02:05:47.113Z,981.07
2017-01-26T02:06:17.141Z,981.1
2017-01-26T02:06:47.174Z,981.05
2017-01-26T02:07:17.209Z,981.11
2017-01-26T02:07:47.240Z,981.05
2017-01-26T02:08:17.276Z,981.08
2017-01-26T02:08:47.307Z,981.11
2017-01-26T02:09:17.340Z,981.07
2017-01-26T02:09:47.373Z,981.08
2017-01-26T02:10:17.422Z,981.04
2017-01-26T02:10:47.442Z,981.07
2017-01-26T02:11:17.473Z,981.1
2017-01-26T02:11:47.506Z,981.06
2017-01-26T02:12:17.537Z,981.11
2017-01-26T02:12:47.570Z,981.08
2017-01-26T02:13:17.603Z,981.12
2017-01-26T02:13:47.635Z,981.09
2017-01-26T02:14:17.669Z,981.03
2017-01-26T02:14:47.701Z,981.14
2017-01-26T02:15:17.735Z,981.1
2017-01-26T02:15:47.769Z,981.12
2017-01-26T02:16:17.845Z,981.08
2017-01-26T02:16:47.832Z,981.14
2017-01-26T02:17:17.867Z,981.1
2017-01-26T02:17:47.899Z,981.08
2017-01-26T02:18:17.935Z,981.17
2017-01-26T02:18:47.965Z,981.1
2017-01-26T02:19:17.999Z,981.12
2017-01-26T02:19:48.032Z,981.05
2017-01-26T02:20:18.066Z,981.07
2017-01-26T02:20:48.096Z,981.13
2017-01-26T02:21:18.129Z,981.05
2017-01-26T02:21:48.165Z,981.06
2017-01-26T02:22:18.197Z,981.09
2017-01-26T02:22:48.229Z,981.08
2017-01-26T02:23:18.261Z,981.14
2017-01-26T02:23:48.294Z,981.13
2017-01-26T02:24:18.328Z,981.1
2017-01-26T02:24:48.362Z,981.1
2017-01-26T02:25:18.394Z,981.11
2017-01-26T02:25:48.428Z,981.11
2017-01-26T02:26:18.459Z,981.11
2017-01-26T02:26:48.493Z,981.08
2017-01-26T02:27:18.524Z,981.07
2017-01-26T02:27:48.557Z,981.1
2017-01-26T02:28:18.590Z,981.05
2017-01-26T02:28:48.625Z,981.1
2017-01-26T02:29:18.656Z,981.06
2017-01-26T02:29:48.689Z,981.03
2017-01-26T02:30:18.722Z,981.06
2017-01-26T02:30:48.755Z,981.04
2017-01-26T02:31:18.791Z,981.09
2017-01-26T02:31:48.821Z,981.02
2017-01-26T02:32:18.854Z,981.06
2017-01-26T02:32:48.889Z,981.04
2017-01-26T02:33:18.922Z,981.06
2017-01-26T02:33:48.952Z,981.04
2017-01-26T02:34:18.986Z,981.01
2017-01-26T02:34:49.019Z,981.03
2017-01-26T02:35:19.052Z,981.04
2017-01-26T02:35:49.085Z,981.02
2017-01-26T02:36:19.120Z,981.03
2017-01-26T02:36:49.150Z,981.09
2017-01-26T02:37:19.183Z,981.08
2017-01-26T02:37:49.217Z,981.05
2017-01-26T02:38:19.249Z,980.96
2017-01-26T02:38:49.282Z,981.05
2017-01-26T02:39:19.316Z,981.07
2017-01-26T02:39:49.351Z,981.05
2017-01-26T02:40:19.381Z,981.05
2017-01-26T02:40:49.413Z,981.02
2017-01-26T02:41:19.448Z,981.03
2017-01-26T02:41:49.481Z,981.08
2017-01-26T02:42:19.514Z,981.08
2017-01-26T02:42:49.546Z,981.04
2017-01-26T02:43:19.578Z,981.05
2017-01-26T02:43:49.611Z,981.07
2017-01-26T02:44:19.644Z,981.05
2017-01-26T02:44:49.694Z,980.92
2017-01-26T02:45:19.709Z,981.06
2017-01-26T02:45:49.744Z,981.01
2017-01-26T02:46:19.778Z,981.03
2017-01-26T02:46:49.809Z,981.09
2017-01-26T02:47:19.844Z,981.07
2017-01-26T02:47:49.882Z,981.02
2017-01-26T02:48:19.912Z,981.03
2017-01-26T02:48:49.941Z,981.02
2017-01-26T02:49:19.973Z,981.03
2017-01-26T02:49:50.008Z,981.07
2017-01-26T02:50:20.039Z,981.02
2017-01-26T02:50:50.073Z,981.06
2017-01-26T02:51:20.109Z,981.04
2017-01-26T02:51:50.140Z,981.02
2017-01-26T02:52:20.172Z,980.96
2017-01-26T02:52:50.211Z,980.96
2017-01-26T02:53:20.237Z,981.03
2017-01-26T02:53:50.270Z,981
2017-01-26T02:54:20.304Z,981.03
2017-01-26T02:54:50.336Z,981.02
2017-01-26T02:55:20.369Z,980.97
2017-01-26T02:55:50.410Z,981
2017-01-26T02:56:20.435Z,981.02
2017-01-26T02:56:50.468Z,980.99
2017-01-26T02:57:20.504Z,980.94
2017-01-26T02:57:50.534Z,981.01
2017-01-26T02:58:20.569Z,980.99
2017-01-26T02:58:50.599Z,981
2017-01-26T02:59:20.634Z,980.99
2017-01-26T02:59:50.666Z,980.97
2017-01-26T03:00:20.698Z,980.96
2017-01-26T03:00:50.730Z,980.94
2017-01-26T03:01:20.766Z,980.98
2017-01-26T03:01:50.796Z,980.93
2017-01-26T03:02:20.833Z,980.95
2017-01-26T03:02:50.863Z,980.94
2017-01-26T03:03:20.895Z,980.96
2017-01-26T03:03:50.927Z,980.99
2017-01-26T03:04:20.960Z,980.95
2017-01-26T03:04:51.022Z,980.96
2017-01-26T03:05:21.027Z,980.91
2017-01-26T03:05:51.061Z,980.9
2017-01-26T03:06:21.094Z,980.93
2017-01-26T03:06:51.127Z,980.94
2017-01-26T03:07:21.157Z,980.84
2017-01-26T03:07:51.195Z,980.98
2017-01-26T03:08:21.224Z,980.9
2017-01-26T03:08:51.257Z,980.92
2017-01-26T03:09:21.290Z,980.9
2017-01-26T03:09:51.324Z,980.9
2017-01-26T03:10:21.356Z,980.94
2017-01-26T03:10:51.389Z,980.9
2017-01-26T03:11:21.422Z,980.91
2017-01-26T03:11:51.456Z,980.93
2017-01-26T03:12:21.488Z,980.85
2017-01-26T03:12:51.522Z,980.86
2017-01-26T03:13:21.554Z,980.84
2017-01-26T03:13:51.588Z,980.86
2017-01-26T03:14:21.619Z,980.9
2017-01-26T03:14:51.668Z,980.91
2017-01-26T03:15:21.687Z,980.83
2017-01-26T03:15:51.719Z,980.78
2017-01-26T03:16:21.751Z,980.82
2017-01-26T03:16:51.785Z,980.8
2017-01-26T03:17:21.818Z,980.82
2017-01-26T03:17:51.851Z,980.83
2017-01-26T03:18:21.884Z,980.8
2017-01-26T03:18:51.916Z,980.77
2017-01-26T03:19:21.950Z,980.82
2017-01-26T03:19:51.986Z,980.86
2017-01-26T03:20:22.016Z,980.84
2017-01-26T03:20:52.048Z,980.9
2017-01-26T03:21:22.081Z,980.86
2017-01-26T03:21:52.115Z,980.84
2017-01-26T03:22:22.150Z,980.84
2017-01-26T03:22:52.182Z,980.85
2017-01-26T03:23:22.214Z,980.89
2017-01-26T03:23:52.246Z,980.85
2017-01-26T03:24:22.280Z,980.85
2017-01-26T03:24:52.312Z,980.81
2017-01-26T03:25:22.347Z,980.83
2017-01-26T03:25:52.379Z,980.82
2017-01-26T03:26:22.412Z,980.8
2017-01-26T03:26:52.444Z,980.8
2017-01-26T03:27:22.478Z,980.78
2017-01-26T03:27:52.509Z,980.76
2017-01-26T03:28:22.543Z,980.82
2017-01-26T03:28:52.575Z,980.82
2017-01-26T03:29:22.608Z,980.83
2017-01-26T03:29:52.642Z,980.82
2017-01-26T03:30:22.673Z,980.82
2017-01-26T03:30:52.708Z,980.82
2017-01-26T03:31:22.740Z,980.85
2017-01-26T03:31:52.775Z,980.82
2017-01-26T03:32:22.807Z,980.81
2017-01-26T03:32:52.839Z,980.83
2017-01-26T03:33:22.873Z,980.85
2017-01-26T03:33:52.905Z,980.83
2017-01-26T03:34:22.937Z,980.84
2017-01-26T03:34:52.970Z,980.86
2017-01-26T03:35:23.004Z,980.86
2017-01-26T03:35:53.037Z,980.87
2017-01-26T03:36:23.070Z,980.89
2017-01-26T03:36:53.104Z,980.88
2017-01-26T03:37:23.137Z,980.84
2017-01-26T03:37:53.169Z,980.87
2017-01-26T03:38:23.225Z,980.93
2017-01-26T03:38:53.233Z,980.87
2017-01-26T03:39:23.267Z,980.86
2017-01-26T03:39:53.301Z,980.87
2017-01-26T03:40:23.348Z,980.84
2017-01-26T03:40:53.366Z,980.83
2017-01-26T03:41:23.398Z,980.84
2017-01-26T03:41:53.431Z,980.82
2017-01-26T03:42:23.464Z,980.85
2017-01-26T03:42:53.497Z,980.82
2017-01-26T03:43:23.531Z,980.82
2017-01-26T03:43:53.562Z,980.8
2017-01-26T03:44:23.597Z,980.84
2017-01-26T03:44:53.631Z,980.81
2017-01-26T03:45:23.664Z,980.81
2017-01-26T03:45:53.695Z,980.81
2017-01-26T03:46:23.729Z,980.79
2017-01-26T03:46:53.762Z,980.85
2017-01-26T03:47:23.796Z,980.84
2017-01-26T03:47:53.826Z,980.81
2017-01-26T03:48:23.860Z,980.8
2017-01-26T03:48:53.893Z,980.82
2017-01-26T03:49:23.925Z,980.82
2017-01-26T03:49:53.957Z,980.84
2017-01-26T03:50:23.992Z,980.83
2017-01-26T03:50:54.050Z,980.86
2017-01-26T03:51:24.058Z,980.83
2017-01-26T03:51:54.091Z,980.82
2017-01-26T03:52:24.124Z,980.85
2017-01-26T03:52:54.155Z,980.8
2017-01-26T03:53:24.189Z,980.82
2017-01-26T03:53:54.221Z,980.81
2017-01-26T03:54:24.257Z,980.82
2017-01-26T03:54:54.285Z,980.79
2017-01-26T03:55:24.319Z,980.84
2017-01-26T03:55:54.353Z,980.8
2017-01-26T03:56:24.387Z,980.81
2017-01-26T03:56:54.419Z,980.78
2017-01-26T03:57:24.454Z,980.81
2017-01-26T03:57:54.484Z,980.85
2017-01-26T03:58:24.516Z,980.84
2017-01-26T03:58:54.548Z,980.79
2017-01-26T03:59:24.582Z,980.8
2017-01-26T03:59:54.615Z,980.81
2017-01-26T04:00:24.648Z,980.81
2017-01-26T04:00:54.680Z,980.82
2017-01-26T04:01:24.714Z,980.85
2017-01-26T04:01:54.746Z,980.8
2017-01-26T04:02:24.781Z,980.8
2017-01-26T04:02:54.811Z,980.84
2017-01-26T04:03:24.846Z,980.8
2017-01-26T04:03:54.878Z,980.8
2017-01-26T04:04:24.927Z,980.77
2017-01-26T04:04:54.947Z,980.79
2017-01-26T04:05:24.977Z,980.79
2017-01-26T04:05:55.010Z,980.81
2017-01-26T04:06:25.042Z,980.81
2017-01-26T04:06:55.077Z,980.8
2017-01-26T04:07:25.107Z,980.8
2017-01-26T04:07:55.141Z,980.82
2017-01-26T04:08:25.175Z,980.78
2017-01-26T04:08:55.211Z,980.83
2017-01-26T04:09:25.242Z,980.81
2017-01-26T04:09:55.273Z,980.83
2017-01-26T04:10:25.306Z,980.83
2017-01-26T04:10:55.362Z,980.82
2017-01-26T04:11:25.373Z,980.84
2017-01-26T04:11:55.403Z,980.83
2017-01-26T04:12:25.437Z,980.71
2017-01-26T04:12:55.470Z,980.79
2017-01-26T04:13:25.504Z,980.83
2017-01-26T04:13:55.537Z,980.82
2017-01-26T04:14:25.570Z,980.82
2017-01-26T04:14:55.601Z,980.81
2017-01-26T04:15:25.634Z,980.78
2017-01-26T04:15:55.666Z,980.82
2017-01-26T04:16:25.700Z,980.81
2017-01-26T04:16:55.733Z,980.83
2017-01-26T04:17:25.766Z,980.86
2017-01-26T04:17:55.797Z,980.86
2017-01-26T04:18:25.830Z,980.8
2017-01-26T04:18:55.863Z,980.8
2017-01-26T04:19:25.897Z,980.84
2017-01-26T04:19:55.929Z,980.8
2017-01-26T04:20:25.961Z,980.74
2017-01-26T04:20:55.994Z,980.73
2017-01-26T04:21:26.027Z,980.75
2017-01-26T04:21:56.065Z,980.77
2017-01-26T04:22:26.092Z,980.78
2017-01-26T04:22:56.126Z,980.72
2017-01-26T04:23:26.160Z,980.72
2017-01-26T04:23:56.192Z,980.75
2017-01-26T04:24:26.223Z,980.72
2017-01-26T04:24:56.259Z,980.72
2017-01-26T04:25:26.289Z,980.77
2017-01-26T04:25:56.324Z,980.69
2017-01-26T04:26:26.355Z,980.71
2017-01-26T04:26:56.388Z,980.7
2017-01-26T04:27:26.423Z,980.7
2017-01-26T04:27:56.455Z,980.71
2017-01-26T04:28:26.488Z,980.74
2017-01-26T04:28:56.525Z,980.69
2017-01-26T04:29:26.553Z,980.71
2017-01-26T04:29:56.585Z,980.75
2017-01-26T04:30:26.618Z,980.74
2017-01-26T04:30:56.652Z,980.77
2017-01-26T04:31:26.691Z,980.72
2017-01-26T04:31:56.716Z,980.62
2017-01-26T04:32:26.749Z,980.71
2017-01-26T04:32:56.783Z,980.69
2017-01-26T04:33:26.816Z,980.7
2017-01-26T04:33:56.848Z,980.68
2017-01-26T04:34:26.882Z,980.65
2017-01-26T04:34:56.913Z,980.64
2017-01-26T04:35:26.946Z,980.67
2017-01-26T04:35:56.978Z,980.66
2017-01-26T04:36:27.012Z,980.68
2017-01-26T04:36:57.045Z,980.66
2017-01-26T04:37:27.077Z,980.66
2017-01-26T04:37:57.109Z,980.67
2017-01-26T04:38:27.177Z,980.68
2017-01-26T04:38:57.175Z,980.63
2017-01-26T04:39:27.209Z,980.65
2017-01-26T04:39:57.242Z,980.66
2017-01-26T04:40:27.276Z,980.69
2017-01-26T04:40:57.307Z,980.63
2017-01-26T04:41:27.337Z,980.63
2017-01-26T04:41:57.372Z,980.63
2017-01-26T04:42:27.404Z,980.66
2017-01-26T04:42:57.439Z,980.65
2017-01-26T04:43:27.471Z,980.66
2017-01-26T04:43:57.511Z,980.63
2017-01-26T04:44:27.536Z,980.58
2017-01-26T04:44:57.568Z,980.59
2017-01-26T04:45:27.601Z,980.64
2017-01-26T04:45:57.634Z,980.64
2017-01-26T04:46:27.667Z,980.64
2017-01-26T04:46:57.700Z,980.66
2017-01-26T04:47:27.733Z,980.61
2017-01-26T04:47:57.764Z,980.63
2017-01-26T04:48:27.798Z,980.6
2017-01-26T04:48:57.829Z,980.59
2017-01-26T04:49:27.864Z,980.61
2017-01-26T04:49:57.896Z,980.59
2017-01-26T04:50:27.928Z,980.6
2017-01-26T04:50:57.961Z,980.55
2017-01-26T04:51:28.004Z,980.55
2017-01-26T04:51:58.033Z,980.54
2017-01-26T04:52:28.063Z,980.52
2017-01-26T04:52:58.094Z,980.54
2017-01-26T04:53:28.125Z,980.55
2017-01-26T04:53:58.158Z,980.56
2017-01-26T04:54:28.192Z,980.55
2017-01-26T04:54:58.224Z,980.55
2017-01-26T04:55:28.256Z,980.54
2017-01-26T04:55:58.289Z,980.53
2017-01-26T04:56:28.332Z,980.55
2017-01-26T04:56:58.356Z,980.52
2017-01-26T04:57:28.395Z,980.55
2017-01-26T04:57:58.424Z,980.51
2017-01-26T04:58:28.453Z,980.51
2017-01-26T04:58:58.485Z,980.52
2017-01-26T04:59:28.520Z,980.49
2017-01-26T04:59:58.551Z,980.52
2017-01-26T05:00:28.585Z,980.49
2017-01-26T05:00:58.617Z,980.49
2017-01-26T05:01:28.656Z,980.49
2017-01-26T05:01:58.684Z,980.48
2017-01-26T05:02:28.715Z,980.53
2017-01-26T05:02:58.747Z,980.47
2017-01-26T05:03:28.780Z,980.47
2017-01-26T05:03:58.815Z,980.46
2017-01-26T05:04:28.845Z,980.49
2017-01-26T05:04:58.890Z,980.46
2017-01-26T05:05:28.911Z,980.47
2017-01-26T05:05:58.944Z,980.44
2017-01-26T05:06:28.977Z,980.43
2017-01-26T05:06:59.010Z,980.39
2017-01-26T05:07:29.043Z,980.43
2017-01-26T05:07:59.075Z,980.42
2017-01-26T05:08:29.107Z,980.43
2017-01-26T05:08:59.140Z,980.45
2017-01-26T05:09:29.173Z,980.44
2017-01-26T05:09:59.205Z,980.47
2017-01-26T05:10:29.238Z,980.49
2017-01-26T05:10:59.273Z,980.37
2017-01-26T05:11:29.303Z,980.43
2017-01-26T05:11:59.341Z,980.46
2017-01-26T05:12:29.369Z,980.42
2017-01-26T05:12:59.417Z,980.45
2017-01-26T05:13:29.437Z,980.42
2017-01-26T05:13:59.469Z,980.42
2017-01-26T05:14:29.500Z,980.43
2017-01-26T05:14:59.534Z,980.45
2017-01-26T05:15:29.566Z,980.45
2017-01-26T05:15:59.601Z,980.5
2017-01-26T05:16:29.632Z,980.44
2017-01-26T05:16:59.664Z,980.38
2017-01-26T05:17:29.700Z,980.44
2017-01-26T05:17:59.730Z,980.46
2017-01-26T05:18:29.762Z,980.47
2017-01-26T05:18:59.795Z,980.5
2017-01-26T05:19:29.840Z,980.44
2017-01-26T05:19:59.862Z,980.49
2017-01-26T05:20:29.895Z,980.46
2017-01-26T05:20:59.926Z,980.46
2017-01-26T05:21:29.959Z,980.49
2017-01-26T05:21:59.991Z,980.49
2017-01-26T05:22:30.028Z,980.48
2017-01-26T05:23:00.056Z,980.43
2017-01-26T05:23:30.090Z,980.46
2017-01-26T05:24:00.122Z,980.45
2017-01-26T05:24:30.155Z,980.46
2017-01-26T05:25:00.189Z,980.42
2017-01-26T05:25:30.220Z,980.39
2017-01-26T05:26:00.252Z,980.46
2017-01-26T05:26:30.285Z,980.46
2017-01-26T05:27:00.319Z,980.5
2017-01-26T05:27:30.352Z,980.46
2017-01-26T05:28:00.383Z,980.5
2017-01-26T05:28:30.415Z,980.49
2017-01-26T05:29:00.449Z,980.51
2017-01-26T05:29:30.481Z,980.55
2017-01-26T05:30:00.515Z,980.48
2017-01-26T05:30:30.548Z,980.51
2017-01-26T05:31:00.579Z,980.49
2017-01-26T05:31:30.613Z,980.48
2017-01-26T05:32:00.644Z,980.47
2017-01-26T05:32:30.680Z,980.48
2017-01-26T05:33:00.710Z,980.43
2017-01-26T05:33:30.743Z,980.43
2017-01-26T05:34:00.777Z,980.49
2017-01-26T05:34:30.808Z,980.44
2017-01-26T05:35:00.840Z,980.44
2017-01-26T05:35:30.873Z,980.44
2017-01-26T05:36:00.907Z,980.44
2017-01-26T05:36:30.939Z,980.44
2017-01-26T05:37:00.971Z,980.44
2017-01-26T05:37:31.005Z,980.42
2017-01-26T05:38:01.038Z,980.44
2017-01-26T05:38:31.069Z,980.41
2017-01-26T05:39:01.102Z,980.41
2017-01-26T05:39:31.137Z,980.45
2017-01-26T05:40:01.169Z,980.45
2017-01-26T05:40:31.203Z,980.47
2017-01-26T05:41:01.234Z,980.47
2017-01-26T05:41:31.267Z,980.47
2017-01-26T05:42:01.299Z,980.4
2017-01-26T05:42:31.333Z,980.43
2017-01-26T05:43:01.366Z,980.39
2017-01-26T05:43:31.397Z,980.45
2017-01-26T05:44:01.432Z,980.36
2017-01-26T05:44:31.462Z,980.38
2017-01-26T05:45:01.496Z,980.39
2017-01-26T05:45:31.528Z,980.4
2017-01-26T05:46:01.560Z,980.4
2017-01-26T05:46:31.594Z,980.36
2017-01-26T05:47:01.627Z,980.42
2017-01-26T05:47:31.659Z,980.37
2017-01-26T05:48:01.692Z,980.4
2017-01-26T05:48:31.723Z,980.41
2017-01-26T05:49:01.757Z,980.38
2017-01-26T05:49:31.789Z,980.38
2017-01-26T05:50:01.822Z,980.39
2017-01-26T05:50:31.856Z,980.39
2017-01-26T05:51:01.887Z,980.39
2017-01-26T05:51:31.919Z,980.36
2017-01-26T05:52:01.954Z,980.36
2017-01-26T05:52:31.984Z,980.38
2017-01-26T05:53:02.018Z,980.3
2017-01-26T05:53:32.071Z,980.39
2017-01-26T05:54:02.142Z,980.35
2017-01-26T05:54:32.116Z,980.38
2017-01-26T05:55:02.148Z,980.33
2017-01-26T05:55:32.181Z,980.36
2017-01-26T05:56:02.214Z,980.36
2017-01-26T05:56:32.245Z,980.37
2017-01-26T05:57:02.279Z,980.37
2017-01-26T05:57:32.312Z,980.37
2017-01-26T05:58:02.346Z,980.38
2017-01-26T05:58:32.377Z,980.38
2017-01-26T05:59:02.410Z,980.38
2017-01-26T05:59:32.442Z,980.4
2017-01-26T06:00:02.475Z,980.35
2017-01-26T06:00:32.507Z,980.34
2017-01-26T06:01:02.541Z,980.33
2017-01-26T06:01:32.575Z,980.35
2017-01-26T06:02:02.605Z,980.37
2017-01-26T06:02:32.639Z,980.33
2017-01-26T06:03:02.673Z,980.35
2017-01-26T06:03:32.704Z,980.3
2017-01-26T06:04:02.740Z,980.32
2017-01-26T06:04:32.769Z,980.32
2017-01-26T06:05:02.805Z,980.32
2017-01-26T06:05:32.834Z,980.37
2017-01-26T06:06:02.868Z,980.31
2017-01-26T06:06:32.899Z,980.36
2017-01-26T06:07:02.933Z,980.33
2017-01-26T06:07:32.969Z,980.33
2017-01-26T06:08:02.998Z,980.32
2017-01-26T06:08:33.030Z,980.38
2017-01-26T06:09:03.063Z,980.33
2017-01-26T06:09:33.096Z,980.34
2017-01-26T06:10:03.130Z,980.35
2017-01-26T06:10:33.167Z,980.36
2017-01-26T06:11:03.195Z,980.37
2017-01-26T06:11:33.227Z,980.36
2017-01-26T06:12:03.259Z,980.36
2017-01-26T06:12:33.292Z,980.34
2017-01-26T06:13:03.324Z,980.37
2017-01-26T06:13:33.358Z,980.31
2017-01-26T06:14:03.390Z,980.41
2017-01-26T06:14:33.425Z,980.33
2017-01-26T06:15:03.483Z,980.39
2017-01-26T06:15:33.488Z,980.35